sensor_id;sensor_type;location;lat;lon;timestamp;P1;durP1;ratioP1;P2;durP2;ratioP2
8622;SDS011;4349;47.552;8.904;2022-10-31T00:00:43;6.87;;;6.27;;
8622;SDS011;4349;47.552;8.904;2022-10-31T00:03:10;9.30;;;6.57;;
8622;SDS011;4349;47.552;8.904;2022-10-31T00:05:40;9.57;;;6.00;;
8622;SDS011;4349;47.552;8.904;2022-10-31T00:08:09;7.50;;;6.23;;
8622;SDS011;4349;47.552;8.904;2022-10-31T00:10:37;9.53;;;7.00;;
8622;SDS011;4349;47.552;8.904;2022-10-31T00:13:05;7.07;;;6.47;;
8622;SDS011;4349;47.552;8.904;2022-10-31T00:15:32;7.80;;;6.30;;
8622;SDS011;4349;47.552;8.904;2022-10-31T00:18:00;9.33;;;6.83;;
8622;SDS011;4349;47.552;8.904;2022-10-31T00:20:28;8.70;;;7.10;;
8622;SDS011;4349;47.552;8.904;2022-10-31T00:22:57;8.97;;;6.40;;
8622;SDS011;4349;47.552;8.904;2022-10-31T00:25:26;9.33;;;6.70;;
8622;SDS011;4349;47.552;8.904;2022-10-31T00:27:54;10.57;;;6.53;;
8622;SDS011;4349;47.552;8.904;2022-10-31T00:30:22;13.87;;;7.30;;
8622;SDS011;4349;47.552;8.904;2022-10-31T00:32:50;11.10;;;7.57;;
8622;SDS011;4349;47.552;8.904;2022-10-31T00:35:17;8.53;;;6.63;;
8622;SDS011;4349;47.552;8.904;2022-10-31T00:37:45;9.10;;;6.60;;
8622;SDS011;4349;47.552;8.904;2022-10-31T00:40:12;7.73;;;6.93;;
8622;SDS011;4349;47.552;8.904;2022-10-31T00:42:41;10.33;;;6.73;;
8622;SDS011;4349;47.552;8.904;2022-10-31T00:45:09;8.53;;;6.33;;
8622;SDS011;4349;47.552;8.904;2022-10-31T00:47:37;7.37;;;5.90;;
8622;SDS011;4349;47.552;8.904;2022-10-31T00:50:05;7.30;;;5.50;;
8622;SDS011;4349;47.552;8.904;2022-10-31T00:52:33;8.23;;;6.20;;
8622;SDS011;4349;47.552;8.904;2022-10-31T00:55:01;9.97;;;6.20;;
8622;SDS011;4349;47.552;8.904;2022-10-31T00:57:29;9.43;;;6.13;;
8622;SDS011;4349;47.552;8.904;2022-10-31T00:59:58;10.70;;;6.63;;
8622;SDS011;4349;47.552;8.904;2022-10-31T01:02:27;8.90;;;6.30;;
8622;SDS011;4349;47.552;8.904;2022-10-31T01:04:55;17.83;;;6.87;;
8622;SDS011;4349;47.552;8.904;2022-10-31T01:07:22;7.20;;;6.50;;
8622;SDS011;4349;47.552;8.904;2022-10-31T01:09:50;7.57;;;6.10;;
8622;SDS011;4349;47.552;8.904;2022-10-31T01:12:18;7.63;;;6.10;;
8622;SDS011;4349;47.552;8.904;2022-10-31T01:14:46;7.40;;;6.70;;
8622;SDS011;4349;47.552;8.904;2022-10-31T01:17:18;7.60;;;6.90;;
8622;SDS011;4349;47.552;8.904;2022-10-31T01:19:46;10.10;;;6.57;;
8622;SDS011;4349;47.552;8.904;2022-10-31T01:22:13;7.47;;;6.20;;
8622;SDS011;4349;47.552;8.904;2022-10-31T01:24:41;7.70;;;7.00;;
8622;SDS011;4349;47.552;8.904;2022-10-31T01:27:08;7.13;;;6.33;;
8622;SDS011;4349;47.552;8.904;2022-10-31T01:29:36;7.97;;;6.43;;
8622;SDS011;4349;47.552;8.904;2022-10-31T01:32:04;8.17;;;6.90;;
8622;SDS011;4349;47.552;8.904;2022-10-31T01:34:33;7.77;;;6.87;;
8622;SDS011;4349;47.552;8.904;2022-10-31T01:37:00;8.13;;;6.53;;
8622;SDS011;4349;47.552;8.904;2022-10-31T01:39:28;10.10;;;5.97;;
8622;SDS011;4349;47.552;8.904;2022-10-31T01:41:56;6.40;;;5.90;;
8622;SDS011;4349;47.552;8.904;2022-10-31T01:47:11;9.47;;;5.70;;
8622;SDS011;4349;47.552;8.904;2022-10-31T01:49:43;6.53;;;5.53;;
8622;SDS011;4349;47.552;8.904;2022-10-31T01:52:14;7.03;;;5.77;;
8622;SDS011;4349;47.552;8.904;2022-10-31T01:54:45;6.73;;;5.70;;
8622;SDS011;4349;47.552;8.904;2022-10-31T01:57:13;9.97;;;5.90;;
8622;SDS011;4349;47.552;8.904;2022-10-31T01:59:42;6.47;;;5.83;;
8622;SDS011;4349;47.552;8.904;2022-10-31T02:02:10;5.53;;;5.00;;
8622;SDS011;4349;47.552;8.904;2022-10-31T02:04:39;9.40;;;5.80;;
8622;SDS011;4349;47.552;8.904;2022-10-31T02:07:09;9.63;;;5.80;;
8622;SDS011;4349;47.552;8.904;2022-10-31T02:09:37;7.57;;;5.77;;
8622;SDS011;4349;47.552;8.904;2022-10-31T02:12:08;7.30;;;5.50;;
8622;SDS011;4349;47.552;8.904;2022-10-31T02:14:37;6.10;;;5.50;;
8622;SDS011;4349;47.552;8.904;2022-10-31T02:17:05;6.27;;;5.47;;
8622;SDS011;4349;47.552;8.904;2022-10-31T02:19:34;10.00;;;5.53;;
8622;SDS011;4349;47.552;8.904;2022-10-31T02:22:05;8.60;;;5.30;;
8622;SDS011;4349;47.552;8.904;2022-10-31T02:24:46;5.83;;;4.93;;
8622;SDS011;4349;47.552;8.904;2022-10-31T02:27:31;7.73;;;5.00;;
8622;SDS011;4349;47.552;8.904;2022-10-31T02:30:05;5.40;;;4.87;;
8622;SDS011;4349;47.552;8.904;2022-10-31T02:32:38;7.67;;;5.50;;
8622;SDS011;4349;47.552;8.904;2022-10-31T02:35:11;7.00;;;5.37;;
8622;SDS011;4349;47.552;8.904;2022-10-31T02:37:43;5.90;;;5.27;;
8622;SDS011;4349;47.552;8.904;2022-10-31T02:40:15;6.80;;;5.00;;
8622;SDS011;4349;47.552;8.904;2022-10-31T02:43:05;7.07;;;4.93;;
8622;SDS011;4349;47.552;8.904;2022-10-31T02:45:35;8.13;;;5.30;;
8622;SDS011;4349;47.552;8.904;2022-10-31T02:48:08;7.20;;;5.50;;
8622;SDS011;4349;47.552;8.904;2022-10-31T02:50:37;9.23;;;5.80;;
8622;SDS011;4349;47.552;8.904;2022-10-31T02:53:08;10.37;;;6.57;;
8622;SDS011;4349;47.552;8.904;2022-10-31T02:55:50;8.80;;;6.40;;
8622;SDS011;4349;47.552;8.904;2022-10-31T02:58:19;13.10;;;6.87;;
8622;SDS011;4349;47.552;8.904;2022-10-31T03:00:56;11.20;;;7.23;;
8622;SDS011;4349;47.552;8.904;2022-10-31T03:03:30;15.83;;;8.03;;
8622;SDS011;4349;47.552;8.904;2022-10-31T03:06:02;16.23;;;8.23;;
8622;SDS011;4349;47.552;8.904;2022-10-31T03:08:33;18.23;;;7.80;;
8622;SDS011;4349;47.552;8.904;2022-10-31T03:11:03;16.73;;;8.27;;
8622;SDS011;4349;47.552;8.904;2022-10-31T03:13:34;29.40;;;7.77;;
8622;SDS011;4349;47.552;8.904;2022-10-31T03:16:05;22.33;;;7.97;;
8622;SDS011;4349;47.552;8.904;2022-10-31T03:18:37;19.23;;;6.57;;
8622;SDS011;4349;47.552;8.904;2022-10-31T03:21:06;10.23;;;6.70;;
8622;SDS011;4349;47.552;8.904;2022-10-31T03:23:35;17.13;;;7.67;;
8622;SDS011;4349;47.552;8.904;2022-10-31T03:26:04;11.40;;;6.10;;
8622;SDS011;4349;47.552;8.904;2022-10-31T03:28:33;12.90;;;6.87;;
8622;SDS011;4349;47.552;8.904;2022-10-31T03:31:03;14.23;;;6.20;;
8622;SDS011;4349;47.552;8.904;2022-10-31T03:33:37;10.63;;;6.50;;
8622;SDS011;4349;47.552;8.904;2022-10-31T03:36:06;9.80;;;6.73;;
8622;SDS011;4349;47.552;8.904;2022-10-31T03:38:35;8.50;;;6.80;;
8622;SDS011;4349;47.552;8.904;2022-10-31T03:41:05;7.20;;;5.87;;
8622;SDS011;4349;47.552;8.904;2022-10-31T03:43:35;6.27;;;5.67;;
8622;SDS011;4349;47.552;8.904;2022-10-31T03:46:03;8.63;;;6.47;;
8622;SDS011;4349;47.552;8.904;2022-10-31T03:48:31;7.27;;;6.27;;
8622;SDS011;4349;47.552;8.904;2022-10-31T03:51:03;7.23;;;6.53;;
8622;SDS011;4349;47.552;8.904;2022-10-31T03:53:33;8.83;;;6.00;;
8622;SDS011;4349;47.552;8.904;2022-10-31T03:56:04;6.77;;;6.10;;
8622;SDS011;4349;47.552;8.904;2022-10-31T03:58:35;6.10;;;5.50;;
8622;SDS011;4349;47.552;8.904;2022-10-31T04:01:06;6.47;;;5.73;;
8622;SDS011;4349;47.552;8.904;2022-10-31T04:03:35;6.67;;;6.00;;
8622;SDS011;4349;47.552;8.904;2022-10-31T04:06:07;11.10;;;5.87;;
8622;SDS011;4349;47.552;8.904;2022-10-31T04:08:39;9.33;;;5.97;;
8622;SDS011;4349;47.552;8.904;2022-10-31T04:11:11;9.23;;;6.17;;
8622;SDS011;4349;47.552;8.904;2022-10-31T04:13:40;9.30;;;6.20;;
8622;SDS011;4349;47.552;8.904;2022-10-31T04:16:13;8.20;;;6.03;;
8622;SDS011;4349;47.552;8.904;2022-10-31T04:18:43;10.97;;;6.70;;
8622;SDS011;4349;47.552;8.904;2022-10-31T04:21:12;10.07;;;7.40;;
8622;SDS011;4349;47.552;8.904;2022-10-31T04:23:40;12.00;;;6.40;;
8622;SDS011;4349;47.552;8.904;2022-10-31T04:26:22;8.53;;;6.90;;
8622;SDS011;4349;47.552;8.904;2022-10-31T04:28:50;8.70;;;7.13;;
8622;SDS011;4349;47.552;8.904;2022-10-31T04:31:18;10.40;;;6.20;;
8622;SDS011;4349;47.552;8.904;2022-10-31T04:33:47;14.97;;;7.23;;
8622;SDS011;4349;47.552;8.904;2022-10-31T04:36:17;11.33;;;6.50;;
8622;SDS011;4349;47.552;8.904;2022-10-31T04:38:47;10.17;;;6.93;;
8622;SDS011;4349;47.552;8.904;2022-10-31T04:41:32;12.87;;;7.43;;
8622;SDS011;4349;47.552;8.904;2022-10-31T04:44:03;15.83;;;7.17;;
8622;SDS011;4349;47.552;8.904;2022-10-31T04:46:31;13.30;;;7.20;;
8622;SDS011;4349;47.552;8.904;2022-10-31T04:48:59;11.37;;;7.30;;
8622;SDS011;4349;47.552;8.904;2022-10-31T04:51:28;15.77;;;6.87;;
8622;SDS011;4349;47.552;8.904;2022-10-31T04:53:55;11.63;;;6.90;;
8622;SDS011;4349;47.552;8.904;2022-10-31T04:56:26;7.47;;;6.57;;
8622;SDS011;4349;47.552;8.904;2022-10-31T04:58:57;9.13;;;6.47;;
8622;SDS011;4349;47.552;8.904;2022-10-31T05:01:27;11.30;;;7.30;;
8622;SDS011;4349;47.552;8.904;2022-10-31T05:03:57;10.43;;;7.67;;
8622;SDS011;4349;47.552;8.904;2022-10-31T05:06:28;14.23;;;7.43;;
8622;SDS011;4349;47.552;8.904;2022-10-31T05:08:56;22.37;;;7.07;;
8622;SDS011;4349;47.552;8.904;2022-10-31T05:11:24;9.60;;;7.17;;
8622;SDS011;4349;47.552;8.904;2022-10-31T05:13:54;8.83;;;7.20;;
8622;SDS011;4349;47.552;8.904;2022-10-31T05:16:54;7.43;;;6.73;;
8622;SDS011;4349;47.552;8.904;2022-10-31T05:19:40;8.73;;;6.67;;
8622;SDS011;4349;47.552;8.904;2022-10-31T05:22:44;9.57;;;7.07;;
8622;SDS011;4349;47.552;8.904;2022-10-31T05:25:12;11.53;;;7.23;;
8622;SDS011;4349;47.552;8.904;2022-10-31T05:27:40;12.80;;;6.60;;
8622;SDS011;4349;47.552;8.904;2022-10-31T05:30:09;12.47;;;6.83;;
8622;SDS011;4349;47.552;8.904;2022-10-31T05:32:37;8.37;;;6.60;;
8622;SDS011;4349;47.552;8.904;2022-10-31T05:35:24;16.53;;;7.17;;
8622;SDS011;4349;47.552;8.904;2022-10-31T05:38:24;21.80;;;7.57;;
8622;SDS011;4349;47.552;8.904;2022-10-31T05:40:54;7.87;;;7.20;;
8622;SDS011;4349;47.552;8.904;2022-10-31T05:43:24;10.23;;;7.17;;
8622;SDS011;4349;47.552;8.904;2022-10-31T05:45:52;8.20;;;6.93;;
8622;SDS011;4349;47.552;8.904;2022-10-31T05:48:39;14.53;;;6.37;;
8622;SDS011;4349;47.552;8.904;2022-10-31T05:51:33;11.37;;;5.97;;
8622;SDS011;4349;47.552;8.904;2022-10-31T05:54:04;11.47;;;6.07;;
8622;SDS011;4349;47.552;8.904;2022-10-31T05:56:31;8.10;;;6.47;;
8622;SDS011;4349;47.552;8.904;2022-10-31T05:58:59;13.73;;;6.33;;
8622;SDS011;4349;47.552;8.904;2022-10-31T06:01:27;12.97;;;6.33;;
8622;SDS011;4349;47.552;8.904;2022-10-31T06:03:58;18.17;;;7.00;;
8622;SDS011;4349;47.552;8.904;2022-10-31T06:06:25;8.30;;;6.10;;
8622;SDS011;4349;47.552;8.904;2022-10-31T06:08:53;6.20;;;5.70;;
8622;SDS011;4349;47.552;8.904;2022-10-31T06:11:23;6.80;;;6.17;;
8622;SDS011;4349;47.552;8.904;2022-10-31T06:14:03;6.63;;;6.03;;
8622;SDS011;4349;47.552;8.904;2022-10-31T06:16:38;6.77;;;6.27;;
8622;SDS011;4349;47.552;8.904;2022-10-31T06:19:24;6.77;;;6.30;;
8622;SDS011;4349;47.552;8.904;2022-10-31T06:21:52;7.60;;;6.90;;
8622;SDS011;4349;47.552;8.904;2022-10-31T06:24:19;7.57;;;6.97;;
8622;SDS011;4349;47.552;8.904;2022-10-31T06:26:54;7.80;;;7.30;;
8622;SDS011;4349;47.552;8.904;2022-10-31T06:29:22;7.80;;;7.20;;
8622;SDS011;4349;47.552;8.904;2022-10-31T06:32:03;6.37;;;5.77;;
8622;SDS011;4349;47.552;8.904;2022-10-31T06:34:35;5.60;;;5.23;;
8622;SDS011;4349;47.552;8.904;2022-10-31T06:37:02;6.50;;;5.70;;
8622;SDS011;4349;47.552;8.904;2022-10-31T06:39:31;6.00;;;5.60;;
8622;SDS011;4349;47.552;8.904;2022-10-31T06:42:00;5.90;;;5.40;;
8622;SDS011;4349;47.552;8.904;2022-10-31T06:44:29;5.83;;;5.33;;
8622;SDS011;4349;47.552;8.904;2022-10-31T06:46:56;5.80;;;5.50;;
8622;SDS011;4349;47.552;8.904;2022-10-31T06:49:59;7.33;;;5.50;;
8622;SDS011;4349;47.552;8.904;2022-10-31T06:52:27;5.90;;;5.50;;
8622;SDS011;4349;47.552;8.904;2022-10-31T06:54:55;6.30;;;5.73;;
8622;SDS011;4349;47.552;8.904;2022-10-31T06:57:24;14.10;;;6.40;;
8622;SDS011;4349;47.552;8.904;2022-10-31T06:59:52;18.90;;;6.67;;
8622;SDS011;4349;47.552;8.904;2022-10-31T07:02:52;16.00;;;7.20;;
8622;SDS011;4349;47.552;8.904;2022-10-31T07:05:22;14.13;;;6.90;;
8622;SDS011;4349;47.552;8.904;2022-10-31T07:07:51;8.87;;;7.70;;
8622;SDS011;4349;47.552;8.904;2022-10-31T07:10:20;18.57;;;6.93;;
8622;SDS011;4349;47.552;8.904;2022-10-31T07:12:59;12.80;;;6.87;;
8622;SDS011;4349;47.552;8.904;2022-10-31T07:15:34;15.80;;;6.17;;
8622;SDS011;4349;47.552;8.904;2022-10-31T07:18:02;8.37;;;6.60;;
8622;SDS011;4349;47.552;8.904;2022-10-31T07:20:32;8.03;;;6.80;;
8622;SDS011;4349;47.552;8.904;2022-10-31T07:23:01;6.83;;;5.53;;
8622;SDS011;4349;47.552;8.904;2022-10-31T07:25:31;6.73;;;5.50;;
8622;SDS011;4349;47.552;8.904;2022-10-31T07:28:18;9.07;;;5.83;;
8622;SDS011;4349;47.552;8.904;2022-10-31T07:30:49;8.13;;;5.73;;
8622;SDS011;4349;47.552;8.904;2022-10-31T07:33:19;16.67;;;6.17;;
8622;SDS011;4349;47.552;8.904;2022-10-31T07:36:09;7.43;;;6.40;;
8622;SDS011;4349;47.552;8.904;2022-10-31T07:38:41;14.17;;;7.77;;
8622;SDS011;4349;47.552;8.904;2022-10-31T07:41:08;8.60;;;7.80;;
8622;SDS011;4349;47.552;8.904;2022-10-31T07:43:42;7.80;;;7.07;;
8622;SDS011;4349;47.552;8.904;2022-10-31T07:46:15;9.57;;;6.87;;
8622;SDS011;4349;47.552;8.904;2022-10-31T07:48:49;7.50;;;6.80;;
8622;SDS011;4349;47.552;8.904;2022-10-31T07:51:35;6.70;;;6.20;;
8622;SDS011;4349;47.552;8.904;2022-10-31T07:54:13;7.67;;;7.00;;
8622;SDS011;4349;47.552;8.904;2022-10-31T07:56:41;11.43;;;8.43;;
8622;SDS011;4349;47.552;8.904;2022-10-31T07:59:10;7.27;;;5.97;;
8622;SDS011;4349;47.552;8.904;2022-10-31T08:01:38;13.47;;;6.27;;
8622;SDS011;4349;47.552;8.904;2022-10-31T08:04:24;7.27;;;6.03;;
8622;SDS011;4349;47.552;8.904;2022-10-31T08:07:11;10.90;;;7.30;;
8622;SDS011;4349;47.552;8.904;2022-10-31T08:09:43;14.70;;;6.90;;
8622;SDS011;4349;47.552;8.904;2022-10-31T08:12:18;9.27;;;7.10;;
8622;SDS011;4349;47.552;8.904;2022-10-31T08:14:47;11.40;;;6.53;;
8622;SDS011;4349;47.552;8.904;2022-10-31T08:17:17;12.60;;;7.73;;
8622;SDS011;4349;47.552;8.904;2022-10-31T08:19:53;9.50;;;6.97;;
8622;SDS011;4349;47.552;8.904;2022-10-31T08:22:26;13.43;;;7.87;;
8622;SDS011;4349;47.552;8.904;2022-10-31T08:24:53;9.33;;;7.27;;
8622;SDS011;4349;47.552;8.904;2022-10-31T08:27:21;12.13;;;7.60;;
8622;SDS011;4349;47.552;8.904;2022-10-31T08:29:50;8.00;;;7.20;;
8622;SDS011;4349;47.552;8.904;2022-10-31T08:32:17;13.10;;;8.13;;
8622;SDS011;4349;47.552;8.904;2022-10-31T08:34:51;15.90;;;7.73;;
8622;SDS011;4349;47.552;8.904;2022-10-31T08:37:37;11.50;;;8.00;;
8622;SDS011;4349;47.552;8.904;2022-10-31T08:40:05;9.80;;;8.50;;
8622;SDS011;4349;47.552;8.904;2022-10-31T08:42:34;10.73;;;9.40;;
8622;SDS011;4349;47.552;8.904;2022-10-31T08:45:04;13.70;;;9.90;;
8622;SDS011;4349;47.552;8.904;2022-10-31T08:47:32;13.40;;;11.13;;
8622;SDS011;4349;47.552;8.904;2022-10-31T08:50:00;14.83;;;11.33;;
8622;SDS011;4349;47.552;8.904;2022-10-31T08:52:28;13.33;;;11.30;;
8622;SDS011;4349;47.552;8.904;2022-10-31T08:55:15;13.10;;;11.47;;
8622;SDS011;4349;47.552;8.904;2022-10-31T08:58:16;17.80;;;12.27;;
8622;SDS011;4349;47.552;8.904;2022-10-31T09:00:50;13.87;;;11.63;;
8622;SDS011;4349;47.552;8.904;2022-10-31T09:03:20;17.40;;;11.63;;
8622;SDS011;4349;47.552;8.904;2022-10-31T09:05:49;18.70;;;12.17;;
8622;SDS011;4349;47.552;8.904;2022-10-31T09:08:17;16.87;;;11.93;;
8622;SDS011;4349;47.552;8.904;2022-10-31T09:10:46;12.93;;;11.63;;
8622;SDS011;4349;47.552;8.904;2022-10-31T09:13:19;13.27;;;11.87;;
8622;SDS011;4349;47.552;8.904;2022-10-31T09:16:09;12.67;;;10.73;;
8622;SDS011;4349;47.552;8.904;2022-10-31T09:18:37;12.17;;;10.33;;
8622;SDS011;4349;47.552;8.904;2022-10-31T09:21:04;13.27;;;10.83;;
8622;SDS011;4349;47.552;8.904;2022-10-31T09:23:32;17.57;;;12.50;;
8622;SDS011;4349;47.552;8.904;2022-10-31T09:26:00;13.13;;;11.73;;
8622;SDS011;4349;47.552;8.904;2022-10-31T09:28:28;21.87;;;10.47;;
8622;SDS011;4349;47.552;8.904;2022-10-31T09:31:00;13.60;;;10.20;;
8622;SDS011;4349;47.552;8.904;2022-10-31T09:33:47;11.90;;;10.70;;
8622;SDS011;4349;47.552;8.904;2022-10-31T09:36:30;12.03;;;10.83;;
8622;SDS011;4349;47.552;8.904;2022-10-31T09:38:58;12.10;;;10.80;;
8622;SDS011;4349;47.552;8.904;2022-10-31T09:41:28;12.53;;;10.77;;
8622;SDS011;4349;47.552;8.904;2022-10-31T09:43:58;17.23;;;12.97;;
8622;SDS011;4349;47.552;8.904;2022-10-31T09:46:30;17.17;;;13.97;;
8622;SDS011;4349;47.552;8.904;2022-10-31T09:49:07;21.40;;;14.40;;
8622;SDS011;4349;47.552;8.904;2022-10-31T09:51:48;17.40;;;14.20;;
8622;SDS011;4349;47.552;8.904;2022-10-31T09:54:27;18.53;;;14.53;;
8622;SDS011;4349;47.552;8.904;2022-10-31T09:56:56;18.23;;;14.20;;
8622;SDS011;4349;47.552;8.904;2022-10-31T09:59:28;16.20;;;13.57;;
8622;SDS011;4349;47.552;8.904;2022-10-31T10:01:59;15.00;;;13.40;;
8622;SDS011;4349;47.552;8.904;2022-10-31T10:04:37;17.30;;;13.87;;
8622;SDS011;4349;47.552;8.904;2022-10-31T10:07:14;15.43;;;12.87;;
8622;SDS011;4349;47.552;8.904;2022-10-31T10:09:44;14.83;;;13.33;;
8622;SDS011;4349;47.552;8.904;2022-10-31T10:12:35;13.30;;;11.90;;
8622;SDS011;4349;47.552;8.904;2022-10-31T10:15:13;13.63;;;12.20;;
8622;SDS011;4349;47.552;8.904;2022-10-31T10:17:48;13.67;;;12.33;;
8622;SDS011;4349;47.552;8.904;2022-10-31T10:20:23;20.50;;;14.73;;
8622;SDS011;4349;47.552;8.904;2022-10-31T10:22:56;16.03;;;14.33;;
8622;SDS011;4349;47.552;8.904;2022-10-31T10:25:28;17.57;;;14.60;;
8622;SDS011;4349;47.552;8.904;2022-10-31T10:28:02;17.83;;;14.93;;
8622;SDS011;4349;47.552;8.904;2022-10-31T10:30:33;21.43;;;15.03;;
8622;SDS011;4349;47.552;8.904;2022-10-31T10:33:04;17.23;;;14.43;;
8622;SDS011;4349;47.552;8.904;2022-10-31T10:35:34;17.53;;;15.57;;
8622;SDS011;4349;47.552;8.904;2022-10-31T10:38:03;15.40;;;13.80;;
8622;SDS011;4349;47.552;8.904;2022-10-31T10:40:35;15.93;;;14.30;;
8622;SDS011;4349;47.552;8.904;2022-10-31T10:43:11;14.07;;;12.67;;
8622;SDS011;4349;47.552;8.904;2022-10-31T10:45:50;14.20;;;12.50;;
8622;SDS011;4349;47.552;8.904;2022-10-31T10:48:44;13.63;;;12.20;;
8622;SDS011;4349;47.552;8.904;2022-10-31T10:51:21;13.33;;;12.03;;
8622;SDS011;4349;47.552;8.904;2022-10-31T10:54:15;12.43;;;11.33;;
8622;SDS011;4349;47.552;8.904;2022-10-31T10:56:47;14.40;;;12.90;;
8622;SDS011;4349;47.552;8.904;2022-10-31T10:59:17;14.63;;;13.23;;
8622;SDS011;4349;47.552;8.904;2022-10-31T11:01:45;19.40;;;15.60;;
8622;SDS011;4349;47.552;8.904;2022-10-31T11:04:22;17.73;;;15.90;;
8622;SDS011;4349;47.552;8.904;2022-10-31T11:06:59;18.50;;;14.73;;
8622;SDS011;4349;47.552;8.904;2022-10-31T11:09:27;16.30;;;14.63;;
8622;SDS011;4349;47.552;8.904;2022-10-31T11:11:55;16.97;;;15.10;;
8622;SDS011;4349;47.552;8.904;2022-10-31T11:14:23;17.10;;;15.40;;
8622;SDS011;4349;47.552;8.904;2022-10-31T11:16:52;17.63;;;15.83;;
8622;SDS011;4349;47.552;8.904;2022-10-31T11:19:21;17.20;;;15.33;;
8622;SDS011;4349;47.552;8.904;2022-10-31T11:21:50;17.57;;;15.77;;
8622;SDS011;4349;47.552;8.904;2022-10-31T11:24:21;15.97;;;14.27;;
8622;SDS011;4349;47.552;8.904;2022-10-31T11:26:49;17.07;;;15.37;;
8622;SDS011;4349;47.552;8.904;2022-10-31T11:29:19;15.33;;;13.93;;
8622;SDS011;4349;47.552;8.904;2022-10-31T11:31:49;14.30;;;12.90;;
8622;SDS011;4349;47.552;8.904;2022-10-31T11:34:26;13.87;;;12.53;;
8622;SDS011;4349;47.552;8.904;2022-10-31T11:36:56;18.23;;;14.77;;
8622;SDS011;4349;47.552;8.904;2022-10-31T11:39:27;16.00;;;14.03;;
8622;SDS011;4349;47.552;8.904;2022-10-31T11:41:59;15.20;;;13.63;;
8622;SDS011;4349;47.552;8.904;2022-10-31T11:44:34;20.40;;;14.07;;
8622;SDS011;4349;47.552;8.904;2022-10-31T11:47:02;15.77;;;14.17;;
8622;SDS011;4349;47.552;8.904;2022-10-31T11:49:32;15.37;;;13.67;;
8622;SDS011;4349;47.552;8.904;2022-10-31T11:52:04;17.37;;;15.30;;
8622;SDS011;4349;47.552;8.904;2022-10-31T11:54:34;16.47;;;14.77;;
8622;SDS011;4349;47.552;8.904;2022-10-31T11:57:03;18.17;;;15.63;;
8622;SDS011;4349;47.552;8.904;2022-10-31T11:59:31;17.10;;;15.40;;
8622;SDS011;4349;47.552;8.904;2022-10-31T12:02:00;18.63;;;15.73;;
8622;SDS011;4349;47.552;8.904;2022-10-31T12:04:30;17.97;;;16.00;;
8622;SDS011;4349;47.552;8.904;2022-10-31T12:06:58;19.83;;;16.53;;
8622;SDS011;4349;47.552;8.904;2022-10-31T12:09:27;18.03;;;16.20;;
8622;SDS011;4349;47.552;8.904;2022-10-31T12:12:01;18.00;;;16.13;;
8622;SDS011;4349;47.552;8.904;2022-10-31T12:14:32;18.20;;;15.70;;
8622;SDS011;4349;47.552;8.904;2022-10-31T12:17:03;21.10;;;16.83;;
8622;SDS011;4349;47.552;8.904;2022-10-31T12:19:35;20.03;;;17.20;;
8622;SDS011;4349;47.552;8.904;2022-10-31T12:22:06;22.83;;;19.57;;
8622;SDS011;4349;47.552;8.904;2022-10-31T12:24:40;27.47;;;24.57;;
8622;SDS011;4349;47.552;8.904;2022-10-31T12:27:15;26.60;;;22.83;;
8622;SDS011;4349;47.552;8.904;2022-10-31T12:29:55;19.30;;;17.03;;
8622;SDS011;4349;47.552;8.904;2022-10-31T12:32:28;17.93;;;16.13;;
8622;SDS011;4349;47.552;8.904;2022-10-31T12:35:05;23.67;;;20.70;;
8622;SDS011;4349;47.552;8.904;2022-10-31T12:37:39;22.53;;;20.03;;
8622;SDS011;4349;47.552;8.904;2022-10-31T12:40:19;18.97;;;17.07;;
8622;SDS011;4349;47.552;8.904;2022-10-31T12:42:53;16.70;;;15.10;;
8622;SDS011;4349;47.552;8.904;2022-10-31T12:45:27;17.60;;;15.77;;
8622;SDS011;4349;47.552;8.904;2022-10-31T12:48:02;18.80;;;16.80;;
8622;SDS011;4349;47.552;8.904;2022-10-31T12:50:35;21.57;;;18.30;;
8622;SDS011;4349;47.552;8.904;2022-10-31T12:53:10;15.40;;;13.90;;
8622;SDS011;4349;47.552;8.904;2022-10-31T12:55:47;13.70;;;12.40;;
8622;SDS011;4349;47.552;8.904;2022-10-31T12:58:21;14.20;;;12.57;;
8622;SDS011;4349;47.552;8.904;2022-10-31T13:00:51;14.20;;;12.70;;
8622;SDS011;4349;47.552;8.904;2022-10-31T13:03:25;16.60;;;12.50;;
8622;SDS011;4349;47.552;8.904;2022-10-31T13:05:55;14.80;;;12.37;;
8622;SDS011;4349;47.552;8.904;2022-10-31T13:08:26;13.20;;;11.63;;
8622;SDS011;4349;47.552;8.904;2022-10-31T13:10:58;13.90;;;12.10;;
8622;SDS011;4349;47.552;8.904;2022-10-31T13:13:33;14.23;;;12.57;;
8622;SDS011;4349;47.552;8.904;2022-10-31T13:16:03;13.60;;;12.20;;
8622;SDS011;4349;47.552;8.904;2022-10-31T13:18:33;13.30;;;11.97;;
8622;SDS011;4349;47.552;8.904;2022-10-31T13:21:03;12.97;;;11.77;;
8622;SDS011;4349;47.552;8.904;2022-10-31T13:23:33;12.80;;;11.40;;
8622;SDS011;4349;47.552;8.904;2022-10-31T13:26:18;12.23;;;11.17;;
8622;SDS011;4349;47.552;8.904;2022-10-31T13:28:50;12.53;;;11.40;;
8622;SDS011;4349;47.552;8.904;2022-10-31T13:31:22;15.07;;;11.93;;
8622;SDS011;4349;47.552;8.904;2022-10-31T13:33:49;15.60;;;13.97;;
8622;SDS011;4349;47.552;8.904;2022-10-31T13:36:22;13.53;;;12.23;;
8622;SDS011;4349;47.552;8.904;2022-10-31T13:38:53;16.40;;;14.67;;
8622;SDS011;4349;47.552;8.904;2022-10-31T13:41:32;16.90;;;15.30;;
8622;SDS011;4349;47.552;8.904;2022-10-31T13:44:06;17.30;;;15.33;;
8622;SDS011;4349;47.552;8.904;2022-10-31T13:46:38;19.37;;;15.73;;
8622;SDS011;4349;47.552;8.904;2022-10-31T13:49:21;16.53;;;14.63;;
8622;SDS011;4349;47.552;8.904;2022-10-31T13:51:50;17.87;;;15.00;;
8622;SDS011;4349;47.552;8.904;2022-10-31T13:54:20;16.20;;;14.50;;
8622;SDS011;4349;47.552;8.904;2022-10-31T13:56:48;18.67;;;15.70;;
8622;SDS011;4349;47.552;8.904;2022-10-31T13:59:18;16.90;;;15.23;;
8622;SDS011;4349;47.552;8.904;2022-10-31T14:01:50;16.13;;;14.60;;
8622;SDS011;4349;47.552;8.904;2022-10-31T14:04:19;15.80;;;14.20;;
8622;SDS011;4349;47.552;8.904;2022-10-31T14:06:55;16.07;;;14.37;;
8622;SDS011;4349;47.552;8.904;2022-10-31T14:09:29;17.47;;;13.83;;
8622;SDS011;4349;47.552;8.904;2022-10-31T14:11:57;16.70;;;13.20;;
8622;SDS011;4349;47.552;8.904;2022-10-31T14:14:30;15.73;;;13.10;;
8622;SDS011;4349;47.552;8.904;2022-10-31T14:16:59;14.37;;;12.87;;
8622;SDS011;4349;47.552;8.904;2022-10-31T14:19:27;13.40;;;12.00;;
8622;SDS011;4349;47.552;8.904;2022-10-31T14:21:55;15.50;;;12.70;;
8622;SDS011;4349;47.552;8.904;2022-10-31T14:24:33;13.93;;;12.63;;
8622;SDS011;4349;47.552;8.904;2022-10-31T14:27:01;13.60;;;12.20;;
8622;SDS011;4349;47.552;8.904;2022-10-31T14:29:30;15.80;;;12.67;;
8622;SDS011;4349;47.552;8.904;2022-10-31T14:32:00;15.63;;;12.20;;
8622;SDS011;4349;47.552;8.904;2022-10-31T14:34:30;14.13;;;12.13;;
8622;SDS011;4349;47.552;8.904;2022-10-31T14:39:50;15.17;;;13.07;;
8622;SDS011;4349;47.552;8.904;2022-10-31T14:42:23;18.00;;;13.27;;
8622;SDS011;4349;47.552;8.904;2022-10-31T14:45:05;16.53;;;13.87;;
8622;SDS011;4349;47.552;8.904;2022-10-31T14:47:36;15.47;;;13.83;;
8622;SDS011;4349;47.552;8.904;2022-10-31T14:50:14;15.03;;;13.53;;
8622;SDS011;4349;47.552;8.904;2022-10-31T14:52:47;18.60;;;13.93;;
8622;SDS011;4349;47.552;8.904;2022-10-31T14:55:16;16.03;;;12.80;;
8622;SDS011;4349;47.552;8.904;2022-10-31T14:57:46;16.33;;;12.90;;
8622;SDS011;4349;47.552;8.904;2022-10-31T15:00:17;15.07;;;13.53;;
8622;SDS011;4349;47.552;8.904;2022-10-31T15:02:48;19.63;;;13.10;;
8622;SDS011;4349;47.552;8.904;2022-10-31T15:05:16;14.70;;;13.23;;
8622;SDS011;4349;47.552;8.904;2022-10-31T15:07:51;14.87;;;13.00;;
8622;SDS011;4349;47.552;8.904;2022-10-31T15:10:20;16.17;;;13.37;;
8622;SDS011;4349;47.552;8.904;2022-10-31T15:12:47;14.77;;;13.27;;
8622;SDS011;4349;47.552;8.904;2022-10-31T15:15:19;13.03;;;11.80;;
8622;SDS011;4349;47.552;8.904;2022-10-31T15:17:48;14.20;;;12.70;;
8622;SDS011;4349;47.552;8.904;2022-10-31T15:20:17;16.23;;;12.93;;
8622;SDS011;4349;47.552;8.904;2022-10-31T15:22:45;14.87;;;12.60;;
8622;SDS011;4349;47.552;8.904;2022-10-31T15:25:16;18.93;;;13.40;;
8622;SDS011;4349;47.552;8.904;2022-10-31T15:27:44;16.27;;;13.03;;
8622;SDS011;4349;47.552;8.904;2022-10-31T15:30:18;14.83;;;11.70;;
8622;SDS011;4349;47.552;8.904;2022-10-31T15:32:46;14.83;;;12.93;;
8622;SDS011;4349;47.552;8.904;2022-10-31T15:35:24;17.97;;;14.50;;